createdAt,value
2023-03-28T00:00:13.039Z,23.3
2023-03-28T00:01:15.238Z,23.2
2023-03-28T00:02:17.343Z,23.2
2023-03-28T00:03:19.617Z,23.4
2023-03-28T00:04:21.824Z,23.4
2023-03-28T00:05:24.087Z,23.3
2023-03-28T00:06:26.752Z,23.4
2023-03-28T00:07:29.087Z,23.5
2023-03-28T00:08:31.213Z,23.4
2023-03-28T00:09:33.161Z,23.4
2023-03-28T00:10:35.085Z,23.2
2023-03-28T00:11:37.172Z,23.3
2023-03-28T00:12:38.855Z,23.4
2023-03-28T00:13:41.018Z,23.3
2023-03-28T00:14:42.954Z,23.4
2023-03-28T00:15:44.861Z,23.3
2023-03-28T00:16:47.153Z,23.3
2023-03-28T00:17:49.363Z,23.3
2023-03-28T00:18:51.799Z,23.3
2023-03-28T00:19:53.706Z,23.2
2023-03-28T00:20:55.825Z,23.2
2023-03-28T00:21:58.032Z,23.3
2023-03-28T00:23:00.145Z,23.2
2023-03-28T00:24:02.313Z,23.5
2023-03-28T00:25:04.432Z,23.4
2023-03-28T00:26:06.137Z,23.4
2023-03-28T00:27:08.408Z,23.4
2023-03-28T00:28:10.528Z,23.3
2023-03-28T00:29:12.546Z,23.4
2023-03-28T00:30:14.757Z,23.4
2023-03-28T00:31:16.663Z,23.3
2023-03-28T00:32:19.048Z,23.5
2023-03-28T00:33:21.135Z,23.5
2023-03-28T00:34:22.818Z,23.3
2023-03-28T00:35:24.918Z,23.5
2023-03-28T00:36:27.166Z,23.4
2023-03-28T00:37:29.254Z,23.4
2023-03-28T00:38:35.047Z,23.2
2023-03-28T00:39:36.744Z,23.3
2023-03-28T00:40:38.838Z,23.3
2023-03-28T00:41:40.947Z,23.3
2023-03-28T00:42:43.087Z,23.3
2023-03-28T00:43:44.792Z,23.3
2023-03-28T00:44:46.813Z,23.4
2023-03-28T00:45:56.035Z,23.4
2023-03-28T00:46:53.776Z,23.3
2023-03-28T00:47:55.967Z,23.4
2023-03-28T00:48:58.214Z,23.3
2023-03-28T00:50:00.322Z,23.4
2023-03-28T00:51:02.507Z,23.4
2023-03-28T00:52:04.668Z,23.6
2023-03-28T00:53:06.767Z,23.4
2023-03-28T00:54:08.650Z,23.5
2023-03-28T00:55:10.564Z,23.5
2023-03-28T00:56:12.638Z,23.7
2023-03-28T00:57:14.559Z,23.6
2023-03-28T00:58:17.125Z,23.4
2023-03-28T00:59:18.842Z,23.3
2023-03-28T01:00:21.068Z,23.6
2023-03-28T01:01:23.262Z,23.5
2023-03-28T01:02:25.380Z,23.6
2023-03-28T01:03:27.999Z,23.5
2023-03-28T01:04:30.713Z,23.4
2023-03-28T01:05:32.779Z,23.5
2023-03-28T01:06:34.860Z,23.5
2023-03-28T01:07:36.978Z,23.3
2023-03-28T01:08:38.882Z,23.5
2023-03-28T01:09:40.994Z,23.5
2023-03-28T01:10:43.392Z,23.5
2023-03-28T01:11:45.467Z,23.4
2023-03-28T01:12:47.570Z,23.4
2023-03-28T01:13:49.826Z,23.5
2023-03-28T01:14:51.996Z,23.5
2023-03-28T01:15:54.444Z,23.4
2023-03-28T01:16:56.858Z,23.5
2023-03-28T01:17:58.632Z,23.6
2023-03-28T01:19:01.171Z,23.4
2023-03-28T01:20:03.096Z,23.7
2023-03-28T01:21:05.216Z,23.5
2023-03-28T01:22:07.331Z,23.6
2023-03-28T01:23:09.404Z,23.6
2023-03-28T01:24:12.502Z,23.6
2023-03-28T01:25:14.474Z,23.6
2023-03-28T01:26:16.366Z,23.5
2023-03-28T01:27:18.476Z,23.5
2023-03-28T01:28:20.358Z,23.6
2023-03-28T01:29:22.479Z,23.6
2023-03-28T01:30:24.350Z,23.6
2023-03-28T01:31:26.559Z,23.5
2023-03-28T01:32:28.766Z,23.6
2023-03-28T01:33:30.663Z,23.5
2023-03-28T01:34:32.774Z,23.4
2023-03-28T01:35:34.676Z,23.5
2023-03-28T01:36:36.994Z,23.6
2023-03-28T01:37:39.077Z,23.4
2023-03-28T01:38:41.153Z,23.5
2023-03-28T01:39:43.069Z,23.4
2023-03-28T01:40:45.198Z,23.5
2023-03-28T01:41:47.302Z,23.5
2023-03-28T01:42:48.995Z,23.4
2023-03-28T01:43:50.877Z,23.5
2023-03-28T01:44:52.590Z,23.5
2023-03-28T01:45:54.406Z,23.6
2023-03-28T01:46:56.824Z,23.5
2023-03-28T01:47:58.818Z,23.6
2023-03-28T01:49:01.178Z,23.5
2023-03-28T01:50:03.081Z,23.6
2023-03-28T01:51:05.247Z,23.6
2023-03-28T01:52:07.325Z,23.5
2023-03-28T01:53:09.410Z,23.6
2023-03-28T01:54:11.241Z,23.4
2023-03-28T01:55:13.346Z,23.6
2023-03-28T01:56:15.499Z,23.4
2023-03-28T01:57:17.798Z,23.3
2023-03-28T01:58:20.362Z,23.4
2023-03-28T01:59:22.502Z,23.6
2023-03-28T02:00:24.622Z,23.6
2023-03-28T02:01:27.111Z,23.4
2023-03-28T02:02:29.526Z,23.5
2023-03-28T02:03:32.054Z,23.6
2023-03-28T02:04:33.827Z,23.6
2023-03-28T02:05:35.975Z,23.6
2023-03-28T02:06:38.046Z,23.6
2023-03-28T02:07:39.921Z,23.6
2023-03-28T02:08:41.797Z,23.5
2023-03-28T02:09:43.674Z,23.5
2023-03-28T02:10:45.793Z,23.7
2023-03-28T02:11:47.707Z,23.8
2023-03-28T02:12:49.792Z,23.4
2023-03-28T02:13:51.905Z,23.5
2023-03-28T02:14:53.995Z,23.6
2023-03-28T02:15:56.085Z,23.7
2023-03-28T02:16:58.792Z,23.7
2023-03-28T02:18:01.070Z,23.6
2023-03-28T02:19:03.346Z,23.4
2023-03-28T02:20:05.434Z,23.7
2023-03-28T02:21:07.576Z,23.5
2023-03-28T02:22:09.687Z,23.4
2023-03-28T02:23:11.596Z,23.5
2023-03-28T02:24:13.488Z,23.4
2023-03-28T02:25:15.382Z,23.6
2023-03-28T02:26:17.485Z,23.6
2023-03-28T02:27:19.556Z,23.5
2023-03-28T02:28:21.645Z,23.6
2023-03-28T02:29:23.348Z,23.6
2023-03-28T02:30:25.421Z,23.8
2023-03-28T02:31:27.360Z,23.6
2023-03-28T02:32:29.764Z,23.7
2023-03-28T02:33:32.081Z,23.4
2023-03-28T02:34:33.995Z,23.6
2023-03-28T02:35:35.728Z,23.8
2023-03-28T02:36:37.952Z,23.5
2023-03-28T02:37:40.053Z,23.7
2023-03-28T02:38:41.740Z,23.7
2023-03-28T02:39:43.807Z,23.8
2023-03-28T02:40:45.965Z,23.6
2023-03-28T02:41:48.135Z,23.6
2023-03-28T02:42:50.260Z,23.6
2023-03-28T02:43:52.337Z,23.7
2023-03-28T02:44:54.417Z,23.6
2023-03-28T02:45:56.521Z,23.6
2023-03-28T02:47:01.244Z,23.6
2023-03-28T02:48:03.480Z,23.6
2023-03-28T02:49:05.595Z,23.6
2023-03-28T02:50:07.729Z,23.6
2023-03-28T02:51:09.635Z,23.4
2023-03-28T02:52:11.755Z,23.6
2023-03-28T02:53:13.856Z,23.6
2023-03-28T02:54:15.686Z,23.5
2023-03-28T02:55:17.697Z,23.7
2023-03-28T02:56:19.888Z,23.6
2023-03-28T02:57:21.424Z,23.5
2023-03-28T02:58:23.368Z,23.6
2023-03-28T02:59:25.437Z,23.6
2023-03-28T03:00:27.355Z,23.4
2023-03-28T03:01:29.449Z,23.7
2023-03-28T03:02:31.623Z,23.6
2023-03-28T03:03:34.021Z,23.5
2023-03-28T03:04:36.456Z,23.6
2023-03-28T03:05:38.556Z,23.7
2023-03-28T03:06:40.502Z,23.6
2023-03-28T03:07:42.422Z,23.5
2023-03-28T03:08:44.147Z,23.5
2023-03-28T03:09:46.270Z,23.6
2023-03-28T03:10:48.391Z,23.6
2023-03-28T03:11:50.295Z,23.4
2023-03-28T03:12:52.373Z,23.5
2023-03-28T03:13:54.273Z,23.5
2023-03-28T03:14:56.247Z,23.5
2023-03-28T03:15:58.668Z,23.3
2023-03-28T03:17:02.424Z,23.4
2023-03-28T03:18:04.310Z,23.4
2023-03-28T03:19:06.559Z,23.5
2023-03-28T03:20:08.518Z,23.4
2023-03-28T03:21:10.639Z,23.3
2023-03-28T03:22:20.865Z,23.5
2023-03-28T03:23:17.511Z,23.4
2023-03-28T03:24:19.588Z,23.5
2023-03-28T03:25:21.262Z,23.3
2023-03-28T03:26:23.191Z,23.4
2023-03-28T03:27:25.083Z,23.4
2023-03-28T03:28:27.201Z,23.3
2023-03-28T03:29:38.321Z,23.4
2023-03-28T03:30:34.155Z,23.4
2023-03-28T03:31:36.282Z,23.4
2023-03-28T03:32:38.469Z,23.3
2023-03-28T03:33:40.442Z,23.3
2023-03-28T03:34:42.519Z,23.2
2023-03-28T03:35:44.488Z,23.3
2023-03-28T03:36:46.994Z,23.2
2023-03-28T03:37:49.061Z,23.3
2023-03-28T03:38:51.161Z,23.3
2023-03-28T03:39:53.249Z,23.2
2023-03-28T03:40:55.147Z,23.3
2023-03-28T03:41:57.237Z,23.2
2023-03-28T03:42:59.497Z,23.3
2023-03-28T03:44:01.951Z,23.2
2023-03-28T03:45:04.190Z,23.2
2023-03-28T03:46:05.808Z,23.4
2023-03-28T03:47:07.938Z,23.3
2023-03-28T03:48:10.067Z,23.3
2023-03-28T03:49:12.432Z,23.1
2023-03-28T03:50:14.587Z,23.2
2023-03-28T03:51:16.828Z,23.3
2023-03-28T03:52:19.026Z,23.1
2023-03-28T03:53:21.144Z,23.1
2023-03-28T03:54:23.270Z,23.2
2023-03-28T03:55:25.375Z,23.2
2023-03-28T03:56:27.070Z,23.3
2023-03-28T03:57:29.174Z,23.3
2023-03-28T03:58:31.270Z,23.2
2023-03-28T03:59:33.245Z,23.2
2023-03-28T04:00:35.374Z,23
2023-03-28T04:01:37.501Z,23.2
2023-03-28T04:02:40.029Z,23.2
2023-03-28T04:03:42.793Z,23.2
2023-03-28T04:04:45.212Z,23.1
2023-03-28T04:05:47.103Z,23.3
2023-03-28T04:06:49.286Z,23
2023-03-28T04:07:51.384Z,23.1
2023-03-28T04:08:53.490Z,23.1
2023-03-28T04:09:55.469Z,23.2
2023-03-28T04:10:57.543Z,23.2
2023-03-28T04:11:59.436Z,23.2
2023-03-28T04:13:01.560Z,23.1
2023-03-28T04:14:03.248Z,23
2023-03-28T04:15:05.159Z,23.1
2023-03-28T04:16:07.060Z,23.1
2023-03-28T04:17:09.158Z,23.1
2023-03-28T04:18:11.074Z,23.1
2023-03-28T04:19:13.439Z,23.1
2023-03-28T04:20:15.613Z,23.1
2023-03-28T04:21:17.838Z,23
2023-03-28T04:22:19.802Z,23
2023-03-28T04:23:21.509Z,22.9
2023-03-28T04:24:23.383Z,23.2
2023-03-28T04:25:25.324Z,23
2023-03-28T04:26:27.032Z,23.2
2023-03-28T04:27:28.961Z,22.9
2023-03-28T04:28:31.049Z,23.1
2023-03-28T04:29:32.964Z,23.2
2023-03-28T04:30:35.120Z,23.2
2023-03-28T04:31:37.292Z,23
2023-03-28T04:32:39.603Z,23.2
2023-03-28T04:33:41.469Z,23
2023-03-28T04:34:43.185Z,23.1
2023-03-28T04:35:45.099Z,23.1
2023-03-28T04:36:47.344Z,23.1
2023-03-28T04:37:49.507Z,23.2
2023-03-28T04:38:51.720Z,23
2023-03-28T04:39:53.464Z,23.1
2023-03-28T04:40:55.727Z,23
2023-03-28T04:41:57.851Z,23
2023-03-28T04:42:59.971Z,23.1
2023-03-28T04:44:01.729Z,23.1
2023-03-28T04:45:03.888Z,23.1
2023-03-28T04:46:05.987Z,23
2023-03-28T04:47:08.041Z,23
2023-03-28T04:48:09.974Z,23
2023-03-28T04:49:11.928Z,23.1
2023-03-28T04:50:14.058Z,23.2
2023-03-28T04:51:16.006Z,23.2
2023-03-28T04:52:18.120Z,23
2023-03-28T04:53:20.323Z,23.2
2023-03-28T04:54:22.464Z,23.2
2023-03-28T04:55:24.385Z,23.2
2023-03-28T04:56:26.300Z,22.9
2023-03-28T04:57:28.420Z,23.2
2023-03-28T04:58:30.518Z,23
2023-03-28T04:59:32.647Z,23.1
2023-03-28T05:00:34.348Z,23.3
2023-03-28T05:01:36.270Z,23.1
2023-03-28T05:02:38.640Z,23.2
2023-03-28T05:03:40.790Z,23.2
2023-03-28T05:04:42.851Z,23.2
2023-03-28T05:05:44.769Z,23.1
2023-03-28T05:06:46.942Z,23.2
2023-03-28T05:07:49.044Z,23.1
2023-03-28T05:08:51.222Z,23.2
2023-03-28T05:09:53.365Z,23.1
2023-03-28T05:10:55.477Z,23
2023-03-28T05:11:57.721Z,23.1
2023-03-28T05:12:59.838Z,23
2023-03-28T05:14:01.765Z,23.1
2023-03-28T05:15:03.876Z,23.1
2023-03-28T05:16:06.013Z,23
2023-03-28T05:17:08.432Z,23
2023-03-28T05:18:10.519Z,23.1
2023-03-28T05:19:12.472Z,23
2023-03-28T05:20:14.226Z,23
2023-03-28T05:21:16.312Z,22.9
2023-03-28T05:22:18.017Z,23.2
2023-03-28T05:23:20.115Z,23.1
2023-03-28T05:24:22.080Z,22.9
2023-03-28T05:25:24.321Z,23.1
2023-03-28T05:26:26.520Z,23
2023-03-28T05:27:28.764Z,22.9
2023-03-28T05:28:30.648Z,23.1
2023-03-28T05:29:32.666Z,23.1
2023-03-28T05:30:34.755Z,23
2023-03-28T05:31:36.875Z,22.9
2023-03-28T05:32:39.036Z,23
2023-03-28T05:33:40.941Z,22.9
2023-03-28T05:34:42.855Z,22.9
2023-03-28T05:35:45.051Z,23
2023-03-28T05:36:47.325Z,23
2023-03-28T05:37:49.481Z,23.1
2023-03-28T05:38:51.589Z,23.1
2023-03-28T05:39:53.847Z,22.8
2023-03-28T05:40:55.791Z,23
2023-03-28T05:41:58.120Z,23
2023-03-28T05:43:00.294Z,23
2023-03-28T05:44:02.234Z,22.8
2023-03-28T05:45:04.356Z,23
2023-03-28T05:46:06.496Z,23
2023-03-28T05:47:08.713Z,22.9
2023-03-28T05:48:10.876Z,23
2023-03-28T05:49:13.263Z,23
2023-03-28T05:50:15.235Z,23
2023-03-28T05:51:17.350Z,22.9
2023-03-28T05:52:19.482Z,22.8
2023-03-28T05:53:21.612Z,22.9
2023-03-28T05:54:23.718Z,22.9
2023-03-28T05:55:25.898Z,23
2023-03-28T05:56:28.055Z,22.9
2023-03-28T05:57:30.149Z,23
2023-03-28T05:58:32.113Z,22.9
2023-03-28T05:59:34.247Z,23
2023-03-28T06:00:36.181Z,22.9
2023-03-28T06:01:38.292Z,22.9
2023-03-28T06:02:45.217Z,22.8
2023-03-28T06:03:47.647Z,23
2023-03-28T06:04:50.078Z,22.9
2023-03-28T06:05:52.248Z,22.9
2023-03-28T06:06:54.344Z,22.8
2023-03-28T06:07:56.281Z,22.9
2023-03-28T06:08:58.186Z,22.9
2023-03-28T06:10:00.122Z,22.6
2023-03-28T06:11:02.546Z,22.8
2023-03-28T06:12:04.557Z,22.9
2023-03-28T06:13:06.669Z,22.8
2023-03-28T06:14:08.909Z,23
2023-03-28T06:15:11.067Z,23
2023-03-28T06:16:13.256Z,22.9
2023-03-28T06:17:14.972Z,22.9
2023-03-28T06:18:17.624Z,22.7
2023-03-28T06:19:19.703Z,22.8
2023-03-28T06:20:22.047Z,23
2023-03-28T06:21:23.821Z,22.8
2023-03-28T06:22:26.058Z,23
2023-03-28T06:23:27.629Z,22.8
2023-03-28T06:24:29.820Z,22.9
2023-03-28T06:25:31.935Z,22.9
2023-03-28T06:26:34.138Z,23
2023-03-28T06:27:36.276Z,22.7
2023-03-28T06:28:38.418Z,22.8
2023-03-28T06:29:40.424Z,22.9
2023-03-28T06:30:42.665Z,22.6
2023-03-28T06:31:44.425Z,22.9
2023-03-28T06:32:46.862Z,22.9
2023-03-28T06:33:49.269Z,22.8
2023-03-28T06:34:51.441Z,22.9
2023-03-28T06:35:53.404Z,22.6
2023-03-28T06:36:55.341Z,22.7
2023-03-28T06:37:57.470Z,22.7
2023-03-28T06:38:59.769Z,22.8
2023-03-28T06:40:01.540Z,22.9
2023-03-28T06:41:03.995Z,22.8
2023-03-28T06:42:06.229Z,22.9
2023-03-28T06:43:08.408Z,22.9
2023-03-28T06:44:09.920Z,22.8
2023-03-28T06:45:11.657Z,22.7
2023-03-28T06:46:13.855Z,22.8
2023-03-28T06:47:15.955Z,22.9
2023-03-28T06:48:17.866Z,22.9
2023-03-28T06:49:19.997Z,22.8
2023-03-28T06:50:22.126Z,22.9
2023-03-28T06:51:24.072Z,22.8
2023-03-28T06:52:26.013Z,22.8
2023-03-28T06:53:28.223Z,22.8
2023-03-28T06:54:30.456Z,22.7
2023-03-28T06:55:32.767Z,22.9
2023-03-28T06:56:34.887Z,22.8
2023-03-28T06:57:37.270Z,22.6
2023-03-28T06:58:39.038Z,22.8
2023-03-28T06:59:41.197Z,22.8
2023-03-28T07:00:43.203Z,22.8
2023-03-28T07:01:45.375Z,22.8
2023-03-28T07:02:47.594Z,22.6
2023-03-28T07:03:52.106Z,22.9
2023-03-28T07:04:54.910Z,22.8
2023-03-28T07:05:57.059Z,22.8
2023-03-28T07:06:59.047Z,22.9
2023-03-28T07:08:01.164Z,22.7
2023-03-28T07:09:05.563Z,22.7
2023-03-28T07:10:08.295Z,22.8
2023-03-28T07:11:10.233Z,22.7
2023-03-28T07:12:12.146Z,23
2023-03-28T07:13:14.362Z,22.9
2023-03-28T07:14:16.493Z,22.6
2023-03-28T07:15:19.479Z,22.9
2023-03-28T07:16:21.743Z,22.9
2023-03-28T07:17:24.056Z,22.8
2023-03-28T07:18:26.421Z,22.8
2023-03-28T07:19:28.132Z,22.7
2023-03-28T07:20:30.274Z,22.8
2023-03-28T07:21:32.377Z,22.8
2023-03-28T07:22:34.316Z,22.9
2023-03-28T07:23:36.435Z,22.9
2023-03-28T07:24:38.382Z,22.7
2023-03-28T07:25:40.507Z,22.8
2023-03-28T07:26:42.629Z,22.9
2023-03-28T07:27:44.697Z,22.7
2023-03-28T07:28:46.930Z,22.8
2023-03-28T07:29:48.859Z,22.6
2023-03-28T07:30:50.597Z,22.8
2023-03-28T07:31:52.802Z,22.7
2023-03-28T07:33:03.466Z,22.8
2023-03-28T07:34:00.192Z,22.8
2023-03-28T07:35:02.305Z,22.8
2023-03-28T07:36:04.269Z,22.8
2023-03-28T07:37:06.618Z,22.9
2023-03-28T07:38:08.344Z,22.6
2023-03-28T07:39:10.611Z,22.6
2023-03-28T07:40:12.312Z,22.6
2023-03-28T07:41:14.091Z,22.8
2023-03-28T07:42:16.005Z,22.7
2023-03-28T07:43:18.216Z,22.7
2023-03-28T07:44:20.417Z,22.6
2023-03-28T07:45:22.538Z,22.7
2023-03-28T07:46:24.566Z,22.7
2023-03-28T07:47:27.140Z,22.7
2023-03-28T07:48:29.424Z,22.7
2023-03-28T07:49:31.520Z,22.7
2023-03-28T07:50:33.615Z,22.7
2023-03-28T07:51:35.459Z,22.8
2023-03-28T07:52:37.181Z,22.8
2023-03-28T07:53:39.260Z,22.5
2023-03-28T07:54:41.200Z,22.7
2023-03-28T07:55:54.165Z,22.8
2023-03-28T07:56:48.312Z,22.7
2023-03-28T07:57:50.575Z,22.8
2023-03-28T07:58:52.680Z,22.7
2023-03-28T07:59:54.884Z,22.8
2023-03-28T08:00:57.005Z,22.8
2023-03-28T08:01:59.848Z,22.7
2023-03-28T08:03:02.255Z,22.9
2023-03-28T08:04:04.951Z,22.7
2023-03-28T08:05:07.664Z,22.7
2023-03-28T08:06:20.406Z,22.8
2023-03-28T08:07:14.846Z,22.8
2023-03-28T08:08:16.970Z,22.9
2023-03-28T08:09:19.133Z,22.8
2023-03-28T08:10:21.127Z,22.6
2023-03-28T08:11:23.270Z,22.6
2023-03-28T08:12:25.361Z,22.7
2023-03-28T08:13:27.468Z,22.9
2023-03-28T08:14:29.563Z,22.9
2023-03-28T08:15:31.341Z,22.6
2023-03-28T08:16:33.769Z,22.8
2023-03-28T08:17:36.179Z,22.8
2023-03-28T08:18:38.041Z,22.7
2023-03-28T08:19:40.177Z,22.8
2023-03-28T08:20:42.066Z,22.8
2023-03-28T08:21:44.167Z,22.7
2023-03-28T08:22:45.868Z,22.8
2023-03-28T08:23:47.765Z,22.9
2023-03-28T08:24:49.869Z,22.7
2023-03-28T08:25:51.985Z,22.8
2023-03-28T08:26:54.109Z,22.8
2023-03-28T08:27:56.288Z,22.8
2023-03-28T08:28:58.413Z,22.8
2023-03-28T08:30:00.366Z,22.7
2023-03-28T08:31:03.129Z,22.7
2023-03-28T08:32:05.887Z,22.8
2023-03-28T08:33:08.261Z,22.8
2023-03-28T08:34:10.938Z,22.7
2023-03-28T08:35:13.120Z,22.7
2023-03-28T08:36:15.307Z,22.9
2023-03-28T08:37:17.964Z,22.7
2023-03-28T08:38:19.868Z,22.7
2023-03-28T08:39:21.805Z,22.8
2023-03-28T08:40:23.750Z,22.7
2023-03-28T08:41:25.907Z,22.9
2023-03-28T08:42:28.038Z,22.9
2023-03-28T08:43:29.985Z,22.8
2023-03-28T08:44:32.131Z,22.8
2023-03-28T08:45:34.481Z,22.6
2023-03-28T08:46:36.774Z,22.6
2023-03-28T08:47:38.871Z,22.6
2023-03-28T08:48:41.199Z,22.7
2023-03-28T08:49:43.222Z,22.7
2023-03-28T08:50:45.320Z,22.7
2023-03-28T08:51:47.462Z,22.7
2023-03-28T08:52:49.573Z,22.8
2023-03-28T08:53:51.289Z,22.7
2023-03-28T08:54:53.416Z,22.7
2023-03-28T08:55:55.537Z,22.8
2023-03-28T08:56:57.819Z,22.6
2023-03-28T08:58:00.184Z,22.7
2023-03-28T08:59:02.393Z,22.6
2023-03-28T09:00:04.527Z,22.9
2023-03-28T09:01:06.448Z,22.8
2023-03-28T09:02:08.552Z,22.8
2023-03-28T09:03:10.960Z,22.7
2023-03-28T09:04:14.062Z,22.8
2023-03-28T09:05:23.450Z,22.8
2023-03-28T09:06:21.947Z,22.7
2023-03-28T09:07:24.023Z,22.8
2023-03-28T09:08:26.124Z,22.9
2023-03-28T09:09:28.264Z,22.7
2023-03-28T09:10:30.180Z,22.8
2023-03-28T09:11:32.306Z,22.8
2023-03-28T09:12:34.389Z,22.8
2023-03-28T09:13:36.312Z,22.8
2023-03-28T09:14:38.464Z,22.7
2023-03-28T09:15:40.436Z,22.7
2023-03-28T09:16:42.746Z,22.7
2023-03-28T09:17:45.262Z,22.7
2023-03-28T09:18:47.652Z,22.8
2023-03-28T09:19:49.840Z,22.7
2023-03-28T09:20:52.036Z,22.7
2023-03-28T09:21:55.882Z,22.9
2023-03-28T09:22:58.942Z,22.8
2023-03-28T09:24:00.869Z,22.8
2023-03-28T09:25:03.005Z,22.7
2023-03-28T09:26:05.124Z,22.8
2023-03-28T09:27:06.677Z,22.7
2023-03-28T09:28:08.975Z,22.8
2023-03-28T09:29:11.352Z,22.8
2023-03-28T09:30:13.533Z,22.9
2023-03-28T09:31:15.269Z,22.8
2023-03-28T09:32:17.483Z,22.8
2023-03-28T09:33:20.120Z,22.8
2023-03-28T09:34:22.088Z,22.9
2023-03-28T09:35:24.199Z,22.9
2023-03-28T09:36:29.484Z,22.7
2023-03-28T09:37:31.792Z,22.8
2023-03-28T09:38:33.996Z,22.7
2023-03-28T09:39:36.121Z,22.7
2023-03-28T09:40:38.264Z,22.7
2023-03-28T09:41:40.373Z,22.9
2023-03-28T09:42:42.478Z,22.9
2023-03-28T09:43:44.569Z,22.7
2023-03-28T09:44:53.892Z,22.7
2023-03-28T09:45:51.519Z,22.9
2023-03-28T09:46:53.967Z,22.9
2023-03-28T09:47:56.123Z,22.6
2023-03-28T09:48:58.954Z,22.8
2023-03-28T09:50:09.938Z,22.8
2023-03-28T09:51:06.683Z,22.8
2023-03-28T09:52:08.714Z,22.9
2023-03-28T09:53:10.801Z,22.7
2023-03-28T09:54:12.897Z,22.8
2023-03-28T09:55:15.013Z,22.6
2023-03-28T09:56:16.912Z,22.7
2023-03-28T09:57:19.069Z,22.7
2023-03-28T09:58:21.314Z,22.7
2023-03-28T09:59:23.804Z,22.7
2023-03-28T10:00:30.004Z,22.8
2023-03-28T10:01:32.188Z,22.7
2023-03-28T10:02:34.795Z,22.7
2023-03-28T10:03:37.060Z,22.8
2023-03-28T10:04:39.461Z,22.6
2023-03-28T10:05:42.142Z,22.9
2023-03-28T10:06:44.078Z,23
2023-03-28T10:07:46.243Z,22.7
2023-03-28T10:08:48.383Z,22.6
2023-03-28T10:09:50.351Z,22.7
2023-03-28T10:10:54.376Z,22.6
2023-03-28T10:11:57.522Z,22.7
2023-03-28T10:12:59.613Z,22.6
2023-03-28T10:14:01.702Z,23
2023-03-28T10:15:03.831Z,22.5
2023-03-28T10:16:05.991Z,22.7
2023-03-28T10:17:08.304Z,22.7
2023-03-28T10:18:10.462Z,22.8
2023-03-28T10:19:12.808Z,22.8
2023-03-28T10:20:15.084Z,22.7
2023-03-28T10:21:17.414Z,22.6
2023-03-28T10:22:19.550Z,22.7
2023-03-28T10:23:21.499Z,22.8
2023-03-28T10:24:23.625Z,22.8
2023-03-28T10:25:25.534Z,22.6
2023-03-28T10:26:27.493Z,22.8
2023-03-28T10:27:29.638Z,22.8
2023-03-28T10:28:31.784Z,22.7
2023-03-28T10:29:33.879Z,22.8
2023-03-28T10:30:35.591Z,22.7
2023-03-28T10:31:37.810Z,22.7
2023-03-28T10:32:40.346Z,22.6
2023-03-28T10:33:42.652Z,22.8
2023-03-28T10:34:44.822Z,22.7
2023-03-28T10:35:47.110Z,22.8
2023-03-28T10:36:49.425Z,22.6
2023-03-28T10:37:51.596Z,22.6
2023-03-28T10:38:53.545Z,22.8
2023-03-28T10:39:55.639Z,22.6
2023-03-28T10:40:58.170Z,22.8
2023-03-28T10:42:02.283Z,22.7
2023-03-28T10:43:04.569Z,22.8
2023-03-28T10:44:06.501Z,22.7
2023-03-28T10:45:08.621Z,22.8
2023-03-28T10:46:10.740Z,22.8
2023-03-28T10:47:12.806Z,22.6
2023-03-28T10:48:14.939Z,22.7
2023-03-28T10:49:16.874Z,22.8
2023-03-28T10:50:18.992Z,22.7
2023-03-28T10:51:21.255Z,22.8
2023-03-28T10:52:23.523Z,22.8
2023-03-28T10:53:25.456Z,22.7
2023-03-28T10:54:27.592Z,22.8
2023-03-28T10:55:29.680Z,22.9
2023-03-28T10:56:31.605Z,22.7
2023-03-28T10:57:33.753Z,22.8
2023-03-28T10:58:35.867Z,22.8
2023-03-28T10:59:38.029Z,22.8
2023-03-28T11:00:40.016Z,22.8
2023-03-28T11:01:41.788Z,22.8
2023-03-28T11:02:44.303Z,22.7
2023-03-28T11:03:46.588Z,22.7
2023-03-28T11:04:49.462Z,22.8
2023-03-28T11:06:02.045Z,22.7
2023-03-28T11:06:56.571Z,22.8
2023-03-28T11:07:58.801Z,23
2023-03-28T11:09:00.839Z,22.8
2023-03-28T11:10:02.877Z,22.6
2023-03-28T11:11:04.997Z,22.7
2023-03-28T11:12:07.144Z,22.9
2023-03-28T11:13:15.631Z,22.7
2023-03-28T11:14:17.736Z,22.8
2023-03-28T11:15:19.653Z,22.7
2023-03-28T11:16:21.648Z,22.6
2023-03-28T11:17:24.278Z,22.8
2023-03-28T11:18:27.514Z,22.8
2023-03-28T11:19:30.989Z,22.9
2023-03-28T11:20:32.726Z,22.8
2023-03-28T11:21:34.865Z,22.9
2023-03-28T11:22:36.916Z,22.8
2023-03-28T11:23:39.040Z,22.8
2023-03-28T11:24:41.166Z,22.7
2023-03-28T11:25:42.945Z,22.7
2023-03-28T11:26:44.676Z,22.7
2023-03-28T11:27:46.381Z,22.8
2023-03-28T11:28:48.474Z,22.8
2023-03-28T11:29:50.603Z,22.8
2023-03-28T11:30:52.491Z,22.7
2023-03-28T11:31:54.739Z,22.8
2023-03-28T11:32:57.088Z,22.9
2023-03-28T11:33:59.454Z,22.9
2023-03-28T11:35:01.649Z,22.8
2023-03-28T11:36:03.456Z,22.8
2023-03-28T11:37:05.823Z,22.7
2023-03-28T11:38:07.528Z,22.8
2023-03-28T11:39:09.742Z,22.7
2023-03-28T11:40:12.185Z,22.7
2023-03-28T11:41:14.388Z,22.9
2023-03-28T11:42:16.515Z,22.7
2023-03-28T11:43:18.694Z,22.8
2023-03-28T11:44:20.590Z,22.8
2023-03-28T11:45:30.853Z,22.7
2023-03-28T11:46:27.581Z,22.7
2023-03-28T11:47:29.996Z,22.6
2023-03-28T11:48:32.098Z,22.8
2023-03-28T11:49:37.928Z,22.6
2023-03-28T11:50:39.868Z,22.8
2023-03-28T11:51:41.985Z,23
2023-03-28T11:52:43.913Z,22.7
2023-03-28T11:53:46.032Z,22.6
2023-03-28T11:54:48.269Z,22.8
2023-03-28T11:55:50.421Z,22.8
2023-03-28T11:56:52.469Z,22.8
2023-03-28T11:57:54.760Z,22.9
2023-03-28T11:58:56.887Z,22.7
2023-03-28T11:59:59.045Z,22.9
2023-03-28T12:01:01.208Z,22.8
2023-03-28T12:02:05.361Z,22.8
2023-03-28T12:03:07.876Z,22.8
2023-03-28T12:04:10.707Z,22.8
2023-03-28T12:05:12.897Z,22.8
2023-03-28T12:06:15.262Z,22.8
2023-03-28T12:07:17.415Z,22.7
2023-03-28T12:08:19.512Z,22.8
2023-03-28T12:09:21.640Z,22.8
2023-03-28T12:10:23.655Z,22.9
2023-03-28T12:11:25.810Z,23
2023-03-28T12:12:27.783Z,22.8
2023-03-28T12:13:29.723Z,22.9
2023-03-28T12:14:31.612Z,22.8
2023-03-28T12:15:33.733Z,22.7
2023-03-28T12:16:35.895Z,22.9
2023-03-28T12:17:43.224Z,22.8
2023-03-28T12:18:45.559Z,22.7
2023-03-28T12:19:47.503Z,22.8
2023-03-28T12:20:49.628Z,22.8
2023-03-28T12:21:51.335Z,22.9
2023-03-28T12:22:53.545Z,22.9
2023-03-28T12:23:55.316Z,22.8
2023-03-28T12:24:57.407Z,22.9
2023-03-28T12:25:59.629Z,23
2023-03-28T12:27:01.754Z,23
2023-03-28T12:28:03.720Z,22.9
2023-03-28T12:29:05.876Z,22.8
2023-03-28T12:30:07.962Z,22.8
2023-03-28T12:31:09.969Z,22.9
2023-03-28T12:32:12.589Z,22.9
2023-03-28T12:33:14.812Z,23
2023-03-28T12:34:17.465Z,22.8
2023-03-28T12:35:19.470Z,22.8
2023-03-28T12:36:21.600Z,22.8
2023-03-28T12:37:23.724Z,22.9
2023-03-28T12:38:25.881Z,22.8
2023-03-28T12:39:27.999Z,22.8
2023-03-28T12:40:29.952Z,22.8
2023-03-28T12:41:32.233Z,23
2023-03-28T12:42:34.147Z,23.1
2023-03-28T12:43:36.108Z,22.9
2023-03-28T12:44:38.061Z,22.8
2023-03-28T12:45:40.176Z,23
2023-03-28T12:46:42.496Z,22.9
2023-03-28T12:47:44.631Z,23
2023-03-28T12:48:46.966Z,23
2023-03-28T12:49:49.069Z,23
2023-03-28T12:50:51.280Z,23
2023-03-28T12:51:53.212Z,22.9
2023-03-28T12:52:55.370Z,22.7
2023-03-28T12:53:57.544Z,23
2023-03-28T12:55:01.274Z,22.8
2023-03-28T12:56:04.001Z,23.1
2023-03-28T12:57:06.061Z,22.8
2023-03-28T12:58:08.361Z,22.9
2023-03-28T12:59:10.536Z,23
2023-03-28T13:00:12.477Z,22.9
2023-03-28T13:01:14.241Z,22.9
2023-03-28T13:02:16.662Z,22.8
2023-03-28T13:03:18.583Z,22.7
2023-03-28T13:04:20.707Z,22.9
2023-03-28T13:05:23.103Z,22.9
2023-03-28T13:06:25.205Z,23
2023-03-28T13:07:27.098Z,22.8
2023-03-28T13:08:28.847Z,22.8
2023-03-28T13:09:30.436Z,22.8
2023-03-28T13:10:32.355Z,22.9
2023-03-28T13:11:34.121Z,22.7
2023-03-28T13:12:36.318Z,22.7
2023-03-28T13:13:37.863Z,22.9
2023-03-28T13:14:40.002Z,22.8
2023-03-28T13:15:42.113Z,22.8
2023-03-28T13:16:44.286Z,22.8
2023-03-28T13:17:46.464Z,22.9
2023-03-28T13:18:49.004Z,22.8
2023-03-28T13:19:50.918Z,22.9
2023-03-28T13:20:53.094Z,22.9
2023-03-28T13:21:55.240Z,23
2023-03-28T13:22:57.229Z,22.8
2023-03-28T13:23:59.598Z,22.7
2023-03-28T13:25:01.530Z,22.8
2023-03-28T13:26:04.577Z,22.9
2023-03-28T13:27:06.731Z,22.8
2023-03-28T13:28:08.956Z,22.8
2023-03-28T13:29:11.082Z,22.9
2023-03-28T13:30:13.199Z,22.9
2023-03-28T13:31:16.022Z,22.9
2023-03-28T13:32:19.909Z,22.8
2023-03-28T13:33:21.860Z,22.9
2023-03-28T13:34:23.774Z,23
2023-03-28T13:35:25.955Z,22.8
2023-03-28T13:36:27.925Z,22.7
2023-03-28T13:37:30.161Z,22.8
2023-03-28T13:38:32.047Z,22.9
2023-03-28T13:39:33.978Z,22.8
2023-03-28T13:40:35.960Z,23
2023-03-28T13:41:38.080Z,23
2023-03-28T13:42:40.172Z,22.8
2023-03-28T13:43:43.455Z,22.9
2023-03-28T13:44:45.814Z,22.9
2023-03-28T13:45:47.920Z,22.9
2023-03-28T13:46:50.048Z,22.8
2023-03-28T13:47:59.878Z,22.9
2023-03-28T13:48:57.362Z,22.8
2023-03-28T13:49:58.964Z,22.9
2023-03-28T13:51:00.757Z,23
2023-03-28T13:52:03.710Z,22.8